Time;durP1;ratioP1;P1;durP2;ratioP2;P2;SDS_P1;SDS_P2;PMS_P1;PMS_P2;Temp;Humidity;BMP_temperature;BMP_pressure;BME280_temperature;BME280_humidity;BME280_pressure;Samples;Min_cycle;Max_cycle;Signal;HPM_P1;HPM_P2
2021/01/09 00:01:25;;;;;;;18.97;11.23;;;1.20;99.90;;;2.30;100.00;100341.38;4985413;28;20334;-66
2021/01/09 00:03:52;;;;;;;18.87;11.60;;;1.30;99.90;;;2.29;100.00;100345.03;4980635;28;20206;-65
2021/01/09 00:06:19;;;;;;;18.90;11.03;;;1.20;99.90;;;2.37;100.00;100341.56;4979504;28;20228;-65
2021/01/09 00:08:46;;;;;;;16.23;10.13;;;1.30;99.90;;;2.18;100.00;100341.84;4979792;28;20196;-65
2021/01/09 00:11:13;;;;;;;18.57;11.63;;;1.30;99.90;;;2.14;100.00;100344.00;4979906;28;20196;-65
2021/01/09 00:13:41;;;;;;;17.87;11.50;;;1.30;99.90;;;2.14;100.00;100344.00;4979328;28;20292;-65
2021/01/09 00:16:08;;;;;;;15.87;10.20;;;1.30;99.90;;;2.29;100.00;100350.34;4979813;28;20195;-65
2021/01/09 00:18:36;;;;;;;16.87;10.10;;;1.30;99.90;;;2.36;100.00;100343.41;4980713;28;20304;-65
2021/01/09 00:21:05;;;;;;;17.93;11.73;;;1.30;99.90;;;2.36;100.00;100347.88;4979908;28;20274;-64
2021/01/09 00:23:32;;;;;;;17.60;10.87;;;1.40;99.90;;;2.54;100.00;100353.06;4978948;28;20257;-65
2021/01/09 00:25:59;;;;;;;18.10;11.10;;;1.40;99.90;;;2.38;100.00;100353.88;4982937;28;20285;-65
2021/01/09 00:28:26;;;;;;;17.43;11.07;;;1.40;99.90;;;2.17;100.00;100354.31;4978765;28;20249;-66
2021/01/09 00:30:54;;;;;;;19.87;13.10;;;1.40;99.90;;;2.23;100.00;100355.50;4980896;28;20805;-64
2021/01/09 00:33:21;;;;;;;18.83;12.97;;;1.30;99.90;;;2.24;100.00;100363.28;4978978;28;20329;-65
2021/01/09 00:35:49;;;;;;;21.23;13.77;;;1.30;99.90;;;2.13;100.00;100362.75;4979173;28;20244;-65
2021/01/09 00:38:16;;;;;;;20.60;13.40;;;1.20;99.90;;;2.36;100.00;100356.69;4980519;28;20235;-64
2021/01/09 00:40:44;;;;;;;17.30;13.00;;;1.30;99.90;;;2.04;100.00;100369.88;4979641;28;20203;-65
2021/01/09 00:43:11;;;;;;;18.40;11.60;;;1.20;99.90;;;2.05;100.00;100366.22;4977865;28;20257;-65
2021/01/09 00:45:38;;;;;;;17.57;11.20;;;1.20;99.90;;;2.15;100.00;100369.56;4980482;28;20274;-64
2021/01/09 00:48:07;;;;;;;15.43;10.27;;;1.20;99.90;;;1.92;100.00;100375.59;4979579;28;20232;-65
2021/01/09 00:50:34;;;;;;;17.03;10.33;;;1.10;99.90;;;2.06;100.00;100372.38;4978420;28;20396;-65
2021/01/09 00:53:02;;;;;;;14.77;10.27;;;1.10;99.90;;;1.90;100.00;100366.97;4979908;28;20191;-66
2021/01/09 00:55:30;;;;;;;15.43;9.47;;;1.00;99.90;;;2.01;100.00;100374.66;4980155;28;20202;-65
2021/01/09 00:57:57;;;;;;;15.27;10.37;;;1.00;99.90;;;1.91;100.00;100374.78;4979859;28;20219;-65
2021/01/09 01:00:24;;;;;;;15.10;9.67;;;1.00;99.90;;;2.16;100.00;100363.28;4977836;28;20228;-65
2021/01/09 01:02:52;;;;;;;14.90;9.83;;;1.00;99.90;;;1.73;100.00;100370.53;4985456;28;20310;-64
2021/01/09 01:05:19;;;;;;;16.77;10.10;;;0.90;99.90;;;1.89;100.00;100374.13;4989374;28;20231;-65
2021/01/09 01:07:46;;;;;;;15.03;10.33;;;1.00;99.90;;;1.71;100.00;100381.31;4988927;28;20612;-65
2021/01/09 01:10:14;;;;;;;17.83;11.27;;;0.90;99.90;;;1.47;100.00;100381.19;4989119;28;20272;-65
2021/01/09 01:12:42;;;;;;;16.03;10.40;;;0.80;99.90;;;1.86;100.00;100381.56;4988901;28;20278;-64
2021/01/09 01:15:11;;;;;;;14.13;9.90;;;0.80;99.90;;;1.74;100.00;100375.69;4989391;28;20232;-66
2021/01/09 01:17:38;;;;;;;15.10;9.77;;;0.80;99.90;;;1.82;100.00;100374.91;4989156;28;20257;-64
2021/01/09 01:20:07;;;;;;;14.23;10.13;;;0.90;99.90;;;1.98;100.00;100383.78;4988989;28;20247;-64
2021/01/09 01:22:35;;;;;;;15.50;9.93;;;0.90;99.90;;;2.00;100.00;100381.78;4990105;28;20234;-65
2021/01/09 01:25:02;;;;;;;14.40;9.53;;;0.90;99.90;;;2.25;100.00;100388.06;4992574;28;20264;-64
2021/01/09 01:27:30;;;;;;;14.77;9.40;;;1.10;99.90;;;2.33;100.00;100386.22;4992195;28;20356;-66
2021/01/09 01:29:58;;;;;;;14.77;10.10;;;1.20;99.90;;;2.37;100.00;100387.56;4992416;28;20246;-65
2021/01/09 01:32:25;;;;;;;14.07;8.90;;;1.30;99.90;;;2.38;100.00;100386.56;4992360;28;20266;-64
2021/01/09 01:34:52;;;;;;;14.43;9.20;;;1.30;99.90;;;2.30;100.00;100386.56;4992664;28;20284;-65
2021/01/09 01:37:19;;;;;;;14.33;9.80;;;1.30;99.90;;;2.26;100.00;100387.03;4993938;28;20290;-65
2021/01/09 01:39:46;;;;;;;13.50;9.23;;;1.40;99.90;;;2.38;100.00;100383.09;4994417;28;20208;-65
2021/01/09 01:42:14;;;;;;;14.60;9.43;;;1.40;99.90;;;2.47;100.00;100382.94;4993432;28;20713;-64
2021/01/09 01:44:42;;;;;;;13.97;9.33;;;1.40;99.90;;;2.29;100.00;100389.38;4993134;28;20212;-65
2021/01/09 01:47:18;;;;;;;14.83;9.77;;;1.40;99.90;;;2.34;100.00;100387.91;4992642;28;20228;-64
2021/01/09 01:49:46;;;;;;;14.00;8.93;;;1.40;99.90;;;2.23;100.00;100392.69;4992228;28;20634;-63
2021/01/09 01:52:14;;;;;;;13.63;9.00;;;1.40;99.90;;;2.19;100.00;100381.56;4992322;28;20203;-63
2021/01/09 01:54:43;;;;;;;12.93;8.60;;;1.30;99.90;;;2.24;100.00;100379.25;4991983;28;20239;-64
2021/01/09 01:57:12;;;;;;;13.03;8.37;;;1.30;99.90;;;2.36;100.00;100375.28;4991901;28;20259;-64
2021/01/09 01:59:40;;;;;;;12.80;8.80;;;1.40;99.90;;;2.20;100.00;100379.69;4992022;28;20375;-64
2021/01/09 02:02:12;;;;;;;14.60;9.83;;;1.30;99.90;;;2.17;100.00;100385.34;4991958;28;20223;-65
2021/01/09 02:04:40;;;;;;;12.80;9.00;;;1.30;99.90;;;2.10;100.00;100395.78;4992298;28;20192;-64
2021/01/09 02:07:14;;;;;;;12.77;9.17;;;1.30;99.90;;;2.17;100.00;100393.31;4992103;28;20204;-65
2021/01/09 02:09:45;;;;;;;13.57;9.50;;;1.20;99.90;;;1.76;100.00;100394.13;4992169;28;20253;-64
2021/01/09 02:12:18;;;;;;;13.17;8.37;;;1.10;99.90;;;2.10;100.00;100393.13;4991813;28;20184;-64
2021/01/09 02:14:50;;;;;;;14.47;9.03;;;1.10;99.90;;;2.21;100.00;100394.66;4991946;28;20223;-64
2021/01/09 02:17:20;;;;;;;13.03;9.00;;;1.20;99.90;;;2.14;100.00;100397.13;4991703;28;20536;-64
2021/01/09 02:19:49;;;;;;;12.73;8.50;;;1.20;99.90;;;2.20;100.00;100396.47;4992061;28;20230;-64
2021/01/09 02:22:19;;;;;;;13.30;9.63;;;1.20;99.90;;;1.86;100.00;100400.16;4991876;28;20225;-64
2021/01/09 02:24:48;;;;;;;14.53;9.53;;;1.10;99.90;;;2.08;100.00;100394.28;4991796;28;20239;-64
2021/01/09 02:27:15;;;;;;;13.27;9.37;;;1.20;99.90;;;2.37;100.00;100392.91;4991435;28;20242;-64
2021/01/09 02:29:51;;;;;;;16.40;9.37;;;1.20;99.90;;;2.44;100.00;100395.72;4991540;28;20253;-63
2021/01/09 02:32:24;;;;;;;12.70;9.07;;;1.30;99.90;;;2.32;100.00;100395.19;4991487;28;20266;-64
2021/01/09 02:34:55;;;;;;;12.17;8.40;;;1.40;99.90;;;2.22;100.00;100393.66;4991008;28;20281;-64
2021/01/09 02:37:24;;;;;;;12.13;8.07;;;1.40;99.90;;;2.32;100.00;100395.19;4991324;28;20630;-64
2021/01/09 02:39:52;;;;;;;11.87;8.67;;;1.30;99.90;;;2.17;100.00;100396.81;4991497;28;20239;-64
2021/01/09 02:42:21;;;;;;;12.93;8.23;;;1.30;99.90;;;2.16;100.00;100397.81;4990713;28;20757;-64
2021/01/09 02:44:51;;;;;;;12.47;8.60;;;1.30;99.90;;;2.35;100.00;100399.38;4991678;28;20302;-64
2021/01/09 02:47:19;;;;;;;13.47;8.60;;;1.30;99.90;;;2.18;100.00;100393.16;4991371;28;20294;-64
2021/01/09 02:49:46;;;;;;;12.97;8.50;;;1.30;99.90;;;2.18;100.00;100398.47;4991655;28;20199;-64
2021/01/09 02:52:14;;;;;;;13.33;9.23;;;1.30;99.90;;;2.19;100.00;100394.84;4991443;28;20211;-63
2021/01/09 02:54:41;;;;;;;12.20;8.17;;;1.30;99.90;;;2.29;100.00;100403.50;4990998;28;20227;-64
2021/01/09 02:57:09;;;;;;;13.67;9.63;;;1.30;99.90;;;2.28;100.00;100404.47;4991050;28;20204;-64
2021/01/09 02:59:36;;;;;;;14.73;9.07;;;1.30;99.90;;;2.12;100.00;100407.09;4990985;28;20730;-64
2021/01/09 03:02:04;;;;;;;14.23;9.07;;;1.30;99.90;;;2.23;100.00;100398.81;4991229;28;20318;-64
2021/01/09 03:04:31;;;;;;;13.10;9.03;;;1.30;99.90;;;2.15;100.00;100409.41;4991458;28;20222;-64
2021/01/09 03:06:58;;;;;;;13.73;9.43;;;1.30;99.90;;;2.30;100.00;100409.66;4991332;28;20227;-64
2021/01/09 03:09:26;;;;;;;15.17;9.63;;;1.30;99.90;;;2.18;100.00;100403.78;4991262;28;20203;-64
2021/01/09 03:11:53;;;;;;;15.20;9.60;;;1.20;99.90;;;2.15;100.00;100403.25;4990547;28;20811;-64
2021/01/09 03:14:22;;;;;;;14.40;9.07;;;1.20;99.90;;;2.38;100.00;100409.69;4991017;28;20555;-64
2021/01/09 03:16:49;;;;;;;15.27;9.67;;;1.30;99.90;;;2.30;100.00;100412.31;4991024;28;20632;-64
2021/01/09 03:19:16;;;;;;;16.70;12.07;;;1.30;99.90;;;2.11;100.00;100410.75;4991080;28;20211;-64
2021/01/09 03:21:43;;;;;;;17.43;12.40;;;1.30;99.90;;;1.85;100.00;100409.09;4990992;28;22211;-65
2021/01/09 03:24:11;;;;;;;16.87;12.20;;;1.20;99.90;;;1.84;100.00;100410.94;4990676;28;20732;-64
2021/01/09 03:26:39;;;;;;;14.83;10.23;;;1.10;99.90;;;1.74;100.00;100415.50;4990284;28;20291;-64
2021/01/09 03:29:06;;;;;;;15.10;10.43;;;1.00;99.90;;;1.92;100.00;100416.28;4990495;28;20671;-64
2021/01/09 03:31:35;;;;;;;15.07;10.47;;;1.00;99.90;;;1.87;100.00;100417.75;4990799;28;20330;-63
2021/01/09 03:34:03;;;;;;;16.40;10.30;;;1.00;99.90;;;2.23;100.00;100411.28;4990863;28;20234;-64
2021/01/09 03:36:31;;;;;;;15.73;10.67;;;1.00;99.90;;;2.00;100.00;100411.00;4990825;28;20203;-63
2021/01/09 03:38:58;;;;;;;15.57;10.23;;;1.00;99.90;;;2.22;100.00;100410.44;4990688;28;20224;-64
2021/01/09 03:41:26;;;;;;;15.27;10.47;;;1.10;99.90;;;1.99;100.00;100413.81;4990011;28;20221;-64
2021/01/09 03:43:53;;;;;;;15.43;10.50;;;1.10;99.90;;;2.23;100.00;100420.06;4990658;28;20269;-64
2021/01/09 03:46:20;;;;;;;16.13;10.50;;;1.20;99.90;;;2.29;100.00;100415.94;4990446;28;20286;-64
2021/01/09 03:48:48;;;;;;;16.97;9.97;;;1.20;99.90;;;2.26;100.00;100416.28;4990393;28;20211;-64
2021/01/09 03:51:16;;;;;;;16.13;10.40;;;1.30;99.90;;;2.21;100.00;100411.44;4990177;28;20652;-64
2021/01/09 03:53:43;;;;;;;16.43;9.73;;;1.20;99.90;;;1.90;100.00;100420.91;4990405;28;20195;-64
2021/01/09 03:56:12;;;;;;;14.47;9.73;;;1.20;99.90;;;1.99;100.00;100419.16;4990033;28;20203;-64
2021/01/09 03:58:39;;;;;;;15.73;10.63;;;1.20;99.90;;;2.05;100.00;100419.34;4989994;28;20287;-63
2021/01/09 04:01:06;;;;;;;16.37;10.57;;;1.10;99.90;;;2.02;100.00;100418.81;4990054;28;20625;-63
2021/01/09 04:03:34;;;;;;;14.83;10.10;;;1.10;99.90;;;1.86;100.00;100427.53;4990251;28;20511;-64
2021/01/09 04:06:02;;;;;;;16.37;10.30;;;1.10;99.90;;;2.05;100.00;100415.84;4990276;28;20208;-64
2021/01/09 04:08:29;;;;;;;15.60;9.57;;;1.10;99.90;;;1.84;100.00;100429.53;4989991;28;20257;-64
2021/01/09 04:10:57;;;;;;;14.93;9.83;;;1.10;99.90;;;1.97;100.00;100429.94;4989467;28;20683;-64
2021/01/09 04:13:24;;;;;;;13.10;9.17;;;1.10;99.90;;;1.68;100.00;100424.09;4990105;28;20231;-64
2021/01/09 04:15:51;;;;;;;13.07;8.40;;;1.00;99.90;;;1.87;100.00;100423.06;4990141;28;20254;-63
2021/01/09 04:18:18;;;;;;;13.53;8.93;;;1.00;99.90;;;1.99;100.00;100422.63;4989821;28;20808;-63
2021/01/09 04:20:46;;;;;;;11.67;8.07;;;1.00;99.90;;;2.04;100.00;100422.16;4989808;28;20298;-63
2021/01/09 04:23:14;;;;;;;12.87;8.67;;;1.10;99.90;;;1.90;100.00;100422.72;4990222;28;20318;-63
2021/01/09 04:25:41;;;;;;;11.73;7.80;;;1.10;99.90;;;1.81;100.00;100421.03;4989254;28;20636;-64
2021/01/09 04:28:08;;;;;;;13.07;8.73;;;1.00;99.90;;;1.58;100.00;100428.69;4989905;28;20496;-64
2021/01/09 04:30:37;;;;;;;12.00;7.80;;;1.00;99.90;;;1.68;100.00;100432.06;4990025;28;20460;-64
2021/01/09 04:33:04;;;;;;;12.80;8.23;;;0.90;99.90;;;1.49;100.00;100434.91;4989558;28;20326;-63
2021/01/09 04:35:31;;;;;;;14.63;8.70;;;0.90;99.90;;;1.50;100.00;100423.34;4989921;28;20249;-65
2021/01/09 04:37:59;;;;;;;14.07;8.77;;;0.80;99.90;;;1.76;100.00;100426.81;4989844;28;20268;-64
2021/01/09 04:40:28;;;;;;;14.77;9.40;;;0.90;99.90;;;1.71;100.00;100426.44;4989451;28;20290;-65
2021/01/09 04:42:55;;;;;;;13.17;8.57;;;0.90;99.90;;;1.63;100.00;100433.53;4989591;28;20230;-65
2021/01/09 04:45:23;;;;;;;16.63;10.30;;;0.90;99.90;;;1.62;100.00;100435.38;4989675;28;20243;-64
2021/01/09 04:47:52;;;;;;;13.07;8.30;;;0.90;99.90;;;1.66;100.00;100436.69;4989382;28;20701;-64
2021/01/09 04:50:21;;;;;;;12.80;8.47;;;0.80;99.90;;;1.70;100.00;100440.72;4989411;28;20207;-64
2021/01/09 04:52:49;;;;;;;14.73;9.37;;;0.90;99.90;;;1.55;100.00;100431.66;4989655;28;20310;-63
2021/01/09 04:55:17;;;;;;;15.83;8.60;;;0.80;99.90;;;1.33;100.00;100428.66;4989370;28;20631;-64
2021/01/09 04:57:45;;;;;;;13.40;8.40;;;0.80;99.90;;;1.39;100.00;100436.84;4988534;28;20249;-64
2021/01/09 05:00:14;;;;;;;15.90;8.97;;;0.70;99.90;;;1.57;100.00;100435.00;4989579;28;20252;-65
2021/01/09 05:02:42;;;;;;;13.13;8.83;;;0.80;99.90;;;1.54;100.00;100447.75;4989218;28;20317;-64
2021/01/09 05:05:11;;;;;;;13.00;8.77;;;0.80;99.90;;;1.49;100.00;100448.19;4989574;28;20257;-64
2021/01/09 05:07:38;;;;;;;14.00;8.80;;;0.70;99.90;;;1.62;100.00;100442.47;4989571;28;20231;-65
2021/01/09 05:10:07;;;;;;;14.57;8.27;;;0.70;99.90;;;1.73;100.00;100451.03;4989176;28;20211;-64
2021/01/09 05:12:35;;;;;;;14.50;8.93;;;0.80;99.90;;;1.60;100.00;100442.66;4989771;28;20283;-64
2021/01/09 05:15:06;;;;;;;12.50;8.73;;;0.80;99.90;;;1.68;100.00;100452.47;4989457;28;20241;-65
2021/01/09 05:17:33;;;;;;;13.73;8.73;;;0.80;99.90;;;1.66;100.00;100452.63;4989431;28;20192;-64
2021/01/09 05:20:01;;;;;;;14.40;9.30;;;0.80;99.90;;;1.59;100.00;100453.41;4989228;28;20714;-64
2021/01/09 05:22:30;;;;;;;12.97;9.00;;;0.80;99.90;;;1.48;100.00;100456.31;4989014;28;20233;-64
2021/01/09 05:24:58;;;;;;;13.73;8.33;;;0.80;99.90;;;1.63;100.00;100468.03;4988884;28;20257;-64
2021/01/09 05:27:27;;;;;;;13.47;8.70;;;0.80;99.90;;;1.57;100.00;100461.53;4988867;28;20674;-64
2021/01/09 05:29:55;;;;;;;14.83;9.57;;;0.80;99.90;;;1.57;100.00;100469.50;4988800;28;20205;-63
2021/01/09 05:32:23;;;;;;;15.33;8.80;;;0.70;99.90;;;1.48;100.00;100470.41;4988888;28;20270;-64
2021/01/09 05:34:54;;;;;;;13.73;8.40;;;0.80;99.90;;;1.46;100.00;100480.34;4989089;28;20200;-65
2021/01/09 05:37:23;;;;;;;15.23;9.00;;;0.70;99.90;;;1.44;100.00;100477.00;4988875;28;20212;-65
2021/01/09 05:39:53;;;;;;;15.10;9.00;;;0.70;99.90;;;1.54;100.00;100472.44;4988498;28;20231;-64
2021/01/09 05:42:23;;;;;;;15.40;9.27;;;0.70;99.90;;;1.60;100.00;100476.31;4988773;28;20207;-64
2021/01/09 05:44:53;;;;;;;12.87;8.93;;;0.70;99.90;;;1.61;100.00;100478.81;4988892;28;20206;-64
2021/01/09 05:47:23;;;;;;;15.17;8.60;;;0.70;99.90;;;1.60;100.00;100487.78;4990494;28;20204;-64
2021/01/09 05:49:52;;;;;;;13.77;9.07;;;0.80;99.90;;;1.55;100.00;100479.44;4988855;28;20191;-64
2021/01/09 05:52:22;;;;;;;14.57;8.90;;;0.80;99.90;;;1.62;100.00;100483.16;4988547;28;20212;-64
2021/01/09 05:54:54;;;;;;;12.80;8.30;;;0.80;99.90;;;1.25;100.00;100487.81;4988451;28;20271;-64
2021/01/09 05:57:28;;;;;;;14.70;9.37;;;0.70;99.90;;;1.30;100.00;100482.88;4988756;28;20279;-64
2021/01/09 05:59:58;;;;;;;16.13;9.70;;;0.60;99.90;;;1.68;100.00;100485.16;4988670;28;20248;-65
2021/01/09 06:02:27;;;;;;;14.23;8.83;;;0.70;99.90;;;1.69;100.00;100493.97;4988653;28;20212;-65
2021/01/09 06:04:59;;;;;;;12.30;8.17;;;0.80;99.90;;;1.67;100.00;100494.13;4988968;28;20200;-65
2021/01/09 06:07:34;;;;;;;14.00;8.50;;;0.80;99.90;;;1.62;100.00;100492.91;4988822;28;20277;-65
2021/01/09 06:10:11;;;;;;;14.43;8.60;;;0.80;99.90;;;1.57;100.00;100504.00;4989808;28;20252;-64
2021/01/09 06:12:59;;;;;;;14.80;8.70;;;0.80;99.90;;;1.60;100.00;100493.06;4992059;28;20210;-65
2021/01/09 06:15:31;;;;;;;13.50;8.73;;;0.70;99.90;;;1.57;100.00;100504.00;4991512;28;20188;-64
2021/01/09 06:18:02;;;;;;;12.60;8.33;;;0.70;99.90;;;1.68;100.00;100505.56;4991895;28;20198;-64
2021/01/09 06:20:30;;;;;;;15.23;8.97;;;0.80;99.90;;;1.68;100.00;100513.53;4991800;28;20258;-64
2021/01/09 06:22:59;;;;;;;15.10;8.23;;;0.80;99.90;;;1.61;100.00;100510.66;4991220;28;20310;-65
2021/01/09 06:25:30;;;;;;;13.73;8.57;;;0.80;99.90;;;1.57;100.00;100519.94;4990859;28;20237;-64
2021/01/09 06:28:03;;;;;;;14.37;9.30;;;0.80;99.90;;;1.49;100.00;100519.03;4991338;28;20227;-65
2021/01/09 06:30:34;;;;;;;14.57;8.90;;;0.70;99.90;;;1.61;100.00;100512.50;4991700;28;20188;-65
2021/01/09 06:33:04;;;;;;;14.23;8.90;;;0.70;99.90;;;1.74;100.00;100519.06;4991366;28;20463;-64
2021/01/09 06:35:33;;;;;;;13.33;8.47;;;0.80;99.90;;;1.75;100.00;100525.19;4992127;28;20207;-64
2021/01/09 06:38:02;;;;;;;12.63;8.53;;;0.80;99.90;;;1.86;100.00;100519.66;4994751;28;20344;-64
2021/01/09 06:40:30;;;;;;;12.97;8.63;;;0.90;99.90;;;1.60;100.00;100530.25;4995275;28;20203;-64
2021/01/09 06:43:00;;;;;;;13.63;8.87;;;0.80;99.90;;;1.72;100.00;100526.38;4994516;28;20231;-65
2021/01/09 06:45:31;;;;;;;13.03;8.60;;;0.80;99.90;;;1.76;100.00;100535.66;4991369;28;20219;-65
2021/01/09 06:48:00;;;;;;;13.27;8.90;;;0.80;99.90;;;1.81;100.00;100532.56;4991623;28;20198;-65
2021/01/09 06:50:34;;;;;;;12.30;8.23;;;0.90;99.90;;;1.69;100.00;100528.50;4991279;28;20303;-64
2021/01/09 06:53:04;;;;;;;11.83;7.87;;;0.90;99.90;;;1.76;100.00;100534.84;4991175;28;20392;-64
2021/01/09 06:56:08;;;;;;;13.90;8.17;;;0.90;99.90;;;1.82;100.00;100539.53;4990789;28;20606;-65
2021/01/09 06:58:37;;;;;;;12.47;8.50;;;0.90;99.90;;;1.61;100.00;100539.84;4991225;28;20187;-65
2021/01/09 07:01:21;;;;;;;11.57;8.07;;;0.80;99.90;;;1.74;100.00;100534.97;4991148;28;20290;-64
2021/01/09 07:03:49;;;;;;;12.77;8.53;;;0.80;99.90;;;1.71;100.00;100530.00;4991584;28;20306;-65
2021/01/09 07:06:57;;;;;;;12.37;7.80;;;0.90;99.90;;;1.61;100.00;100541.69;4991238;28;20229;-64
2021/01/09 07:09:25;;;;;;;12.93;8.30;;;0.90;99.90;;;1.83;100.00;100539.38;4985294;28;20211;-63
2021/01/09 07:11:53;;;;;;;10.90;7.23;;;0.90;99.90;;;1.59;100.00;100546.31;4990911;28;20302;-64
2021/01/09 07:14:22;;;;;;;13.47;8.77;;;0.80;99.90;;;1.72;100.00;100547.59;4990733;28;20659;-64
2021/01/09 07:16:49;;;;;;;12.47;7.93;;;0.80;99.90;;;1.71;100.00;100553.06;4991176;28;20267;-64
2021/01/09 07:19:17;;;;;;;11.10;7.70;;;0.80;99.90;;;1.68;100.00;100546.22;4990723;28;20216;-65
2021/01/09 07:21:46;;;;;;;12.93;8.37;;;0.80;99.90;;;1.62;100.00;100549.50;4990603;28;20207;-65
2021/01/09 07:24:18;;;;;;;10.23;7.70;;;0.80;99.90;;;1.76;100.00;100545.47;4990800;28;20227;-64
2021/01/09 07:26:50;;;;;;;11.80;7.77;;;0.80;99.90;;;1.72;100.00;100555.56;4990726;28;20626;-65
2021/01/09 07:29:26;;;;;;;11.83;8.43;;;0.80;99.90;;;1.81;100.00;100554.63;4990740;28;20192;-65
2021/01/09 07:31:54;;;;;;;11.07;7.90;;;0.90;99.90;;;1.68;100.00;100564.81;5058135;28;20261;-64
2021/01/09 07:34:22;;;;;;;13.00;8.60;;;0.90;99.90;;;1.88;100.00;100561.00;5093063;28;20196;-65
2021/01/09 07:36:54;;;;;;;11.73;7.57;;;0.90;99.90;;;1.90;100.00;100552.88;5093110;28;20287;-64
2021/01/09 07:39:24;;;;;;;9.70;7.00;;;0.90;99.90;;;1.74;100.00;100572.16;5092914;28;20181;-65
2021/01/09 07:41:52;;;;;;;11.20;7.90;;;0.90;99.90;;;1.90;100.00;100574.13;5092120;28;20300;-66
2021/01/09 07:44:21;;;;;;;11.63;8.00;;;1.00;99.90;;;1.88;100.00;100573.44;5092317;28;20255;-65
2021/01/09 07:46:55;;;;;;;11.13;7.60;;;1.00;99.90;;;1.86;100.00;100578.91;5092375;28;20198;-65
2021/01/09 07:49:28;;;;;;;10.23;7.50;;;1.00;99.90;;;1.86;100.00;100576.25;5092891;28;20605;-66
2021/01/09 07:52:01;;;;;;;10.83;7.93;;;1.00;99.90;;;2.04;100.00;100570.91;5092845;28;20204;-65
2021/01/09 07:54:37;;;;;;;11.50;7.90;;;1.10;99.90;;;2.12;100.00;100573.63;5092872;28;20191;-65
2021/01/09 07:57:22;;;;;;;12.00;7.00;;;1.10;99.90;;;2.11;100.00;100574.63;5092314;28;20555;-65
2021/01/09 08:00:12;;;;;;;10.73;7.23;;;1.10;99.90;;;2.01;100.00;100581.84;5092620;28;20199;-65
2021/01/09 08:02:41;;;;;;;9.73;7.43;;;1.10;99.90;;;2.19;100.00;100583.47;5092186;28;20733;-65
2021/01/09 08:05:12;;;;;;;10.70;7.60;;;1.20;99.90;;;2.18;100.00;100579.16;5092271;28;20200;-64
2021/01/09 08:07:43;;;;;;;11.07;7.40;;;1.20;99.90;;;1.76;100.00;100591.44;5092346;28;20182;-65
2021/01/09 08:10:26;;;;;;;11.83;7.63;;;1.10;99.90;;;2.22;100.00;100585.81;5092342;28;20267;-65
2021/01/09 08:12:57;;;;;;;11.20;7.50;;;1.20;99.90;;;2.06;100.00;100601.63;5092168;28;20184;-65
2021/01/09 08:15:26;;;;;;;11.07;7.03;;;1.20;99.90;;;2.00;100.00;100602.25;5091697;28;20267;-65
2021/01/09 08:17:54;;;;;;;10.20;7.63;;;1.20;99.90;;;2.21;100.00;100599.28;5091821;28;20667;-65
2021/01/09 08:20:22;;;;;;;11.43;7.63;;;1.30;99.90;;;2.19;100.00;100601.25;5092118;28;20643;-66
2021/01/09 08:22:55;;;;;;;9.97;7.13;;;1.30;99.90;;;2.42;100.00;100602.38;5091937;28;20777;-66
2021/01/09 08:25:25;;;;;;;11.63;8.17;;;1.40;99.90;;;2.48;100.00;100607.09;5090255;28;20296;-65
2021/01/09 08:27:55;;;;;;;10.20;7.13;;;1.50;99.90;;;2.48;100.00;100610.59;4989629;28;20212;-65
2021/01/09 08:30:26;;;;;;;10.60;6.93;;;1.50;99.90;;;2.52;100.00;100612.94;4989465;28;20230;-64
2021/01/09 08:33:06;;;;;;;10.23;6.90;;;1.60;99.90;;;2.62;100.00;100618.97;4988680;28;20316;-64
2021/01/09 08:35:36;;;;;;;11.23;7.53;;;1.60;99.90;;;2.65;100.00;100616.00;4989887;28;20234;-64
2021/01/09 08:38:06;;;;;;;9.47;6.87;;;1.70;99.90;;;2.79;100.00;100620.72;4989905;28;20210;-64
2021/01/09 08:40:34;;;;;;;11.80;7.30;;;1.70;99.90;;;2.72;100.00;100623.19;4991112;28;20196;-64
2021/01/09 08:43:05;;;;;;;10.57;7.47;;;1.70;99.90;;;2.58;100.00;100630.91;4989739;28;20227;-65
2021/01/09 08:45:41;;;;;;;10.43;7.73;;;1.70;99.90;;;2.70;100.00;100632.31;4989286;28;20639;-64
2021/01/09 08:48:11;;;;;;;10.87;7.10;;;1.70;99.90;;;2.61;100.00;100627.91;4989874;28;20184;-64
2021/01/09 08:50:47;;;;;;;10.40;7.57;;;1.70;99.90;;;2.47;100.00;100635.50;4990097;28;20233;-64
2021/01/09 08:53:17;;;;;;;10.67;7.27;;;1.70;99.90;;;2.62;100.00;100641.09;4988778;28;20189;-64
2021/01/09 08:55:45;;;;;;;12.13;8.43;;;1.70;99.90;;;2.64;100.00;100649.72;4990252;28;20310;-64
2021/01/09 08:58:15;;;;;;;10.47;7.40;;;1.70;99.90;;;2.75;100.00;100644.16;4989765;28;20785;-64
2021/01/09 09:00:43;;;;;;;10.23;7.07;;;1.70;99.90;;;2.57;100.00;100647.84;4989991;28;20230;-64
2021/01/09 09:03:13;;;;;;;11.17;7.80;;;1.70;99.90;;;2.76;100.00;100645.00;4989992;28;20235;-64
2021/01/09 09:05:42;;;;;;;9.93;6.97;;;1.70;99.90;;;2.62;100.00;100650.88;4990313;28;20188;-64
2021/01/09 09:08:13;;;;;;;9.37;6.50;;;1.70;99.90;;;2.83;100.00;100649.50;4989887;28;20290;-64
2021/01/09 09:10:47;;;;;;;9.70;6.83;;;1.80;99.90;;;2.64;100.00;100654.22;4990212;28;20191;-64
2021/01/09 09:13:21;;;;;;;10.47;6.90;;;1.80;99.90;;;2.69;100.00;100655.41;4989681;28;20365;-65
2021/01/09 09:15:49;;;;;;;9.43;6.77;;;1.70;99.90;;;2.50;100.00;100658.28;4989002;28;20223;-64
2021/01/09 09:18:18;;;;;;;10.30;7.33;;;1.70;99.90;;;2.47;100.00;100661.22;4988589;28;20264;-63
2021/01/09 09:20:49;;;;;;;9.10;6.80;;;1.60;99.90;;;2.42;100.00;100663.53;4988623;28;20256;-65
2021/01/09 09:23:18;;;;;;;9.67;6.80;;;1.60;99.90;;;2.64;100.00;100667.53;4989432;28;20342;-63
2021/01/09 09:26:02;;;;;;;9.90;7.07;;;1.70;99.90;;;2.59;100.00;100665.31;4989323;28;20212;-63
2021/01/09 09:28:30;;;;;;;10.40;7.43;;;1.70;99.90;;;2.66;100.00;100669.00;4989717;28;20273;-65
2021/01/09 09:30:57;;;;;;;11.17;8.07;;;1.70;99.90;;;2.69;100.00;100667.88;4989507;28;20288;-64
2021/01/09 09:33:24;;;;;;;11.23;7.83;;;1.70;99.90;;;2.78;100.00;100667.75;4989389;28;20250;-64
2021/01/09 09:35:52;;;;;;;10.00;7.40;;;1.70;99.90;;;2.79;100.00;100668.59;4989113;28;20243;-64
2021/01/09 09:38:28;;;;;;;12.07;7.57;;;1.80;99.90;;;2.69;100.00;100667.88;4988921;28;20646;-64
2021/01/09 09:41:05;;;;;;;11.43;7.27;;;1.80;99.90;;;2.65;100.00;100677.16;4989368;28;20239;-64
2021/01/09 09:43:33;;;;;;;9.33;7.00;;;1.70;99.90;;;2.56;100.00;100673.59;4989621;28;20252;-64
2021/01/09 09:46:03;;;;;;;11.57;7.50;;;1.70;99.90;;;2.50;100.00;100677.72;4992293;28;20211;-64
2021/01/09 09:48:33;;;;;;;10.30;7.27;;;1.60;99.90;;;2.46;100.00;100681.69;4992455;28;20192;-65
2021/01/09 09:51:07;;;;;;;10.20;7.53;;;1.60;99.90;;;2.40;100.00;100676.97;4992614;28;20227;-64
2021/01/09 09:53:36;;;;;;;11.17;8.27;;;1.50;99.90;;;2.55;100.00;100671.09;4992483;28;20279;-63
2021/01/09 09:56:15;;;;;;;14.03;8.70;;;1.60;99.90;;;2.53;100.00;100671.25;4992096;28;20200;-64
2021/01/09 09:58:44;;;;;;;11.03;7.60;;;1.60;99.90;;;2.55;100.00;100663.13;4991994;28;20242;-64
2021/01/09 10:01:19;;;;;;;13.53;8.83;;;1.60;99.90;;;2.57;100.00;100672.63;4992155;28;20204;-64
2021/01/09 10:03:48;;;;;;;11.83;8.20;;;1.70;99.90;;;2.62;100.00;100673.00;4992122;28;20253;-65
2021/01/09 10:06:16;;;;;;;11.27;8.17;;;1.70;99.90;;;2.59;100.00;100667.97;4992080;28;20294;-63
2021/01/09 10:08:44;;;;;;;14.07;9.07;;;1.70;99.90;;;2.57;100.00;100671.78;4992310;28;20207;-63
2021/01/09 10:11:13;;;;;;;14.20;9.23;;;1.70;99.90;;;2.70;100.00;100674.84;4991668;28;20334;-64
2021/01/09 10:13:41;;;;;;;11.87;8.30;;;1.70;99.90;;;2.86;100.00;100672.31;4991486;28;20249;-64
2021/01/09 10:16:08;;;;;;;11.70;8.50;;;1.80;99.90;;;2.65;100.00;100678.00;4991703;28;20210;-65
2021/01/09 10:18:35;;;;;;;14.00;9.20;;;1.80;99.90;;;2.88;100.00;100667.66;4991573;28;20257;-64
2021/01/09 10:21:03;;;;;;;12.67;9.67;;;1.80;99.90;;;2.88;100.00;100675.63;4991680;28;20294;-64
2021/01/09 10:23:30;;;;;;;11.83;8.73;;;1.90;99.90;;;2.64;100.00;100678.16;4991499;28;20310;-63